Time;durP1;ratioP1;P1;durP2;ratioP2;P2;SDS_P1;SDS_P2;PMS_P1;PMS_P2;Temp;Humidity;BMP_temperature;BMP_pressure;BME280_temperature;BME280_humidity;BME280_pressure;Samples;Min_cycle;Max_cycle;Signal;HPM_P1;HPM_P2
2021/09/18 00:00:41;;;;;;;7.63;7.13;;;15.60;99.90;;;;;;10519846;28;20218;-85
2021/09/18 00:05:44;;;;;;;7.30;6.90;;;15.60;99.90;;;;;;10508193;28;20272;-85
2021/09/18 00:10:46;;;;;;;7.80;7.30;;;15.60;99.90;;;;;;10516570;28;20240;-85
2021/09/18 00:15:49;;;;;;;7.23;6.73;;;15.60;99.90;;;;;;10502211;28;20686;-85
2021/09/18 00:20:52;;;;;;;7.83;7.33;;;15.50;99.90;;;;;;10518694;28;20595;-85
2021/09/18 00:25:54;;;;;;;7.57;6.80;;;15.50;99.90;;;;;;10502094;28;20694;-84
2021/09/18 00:30:56;;;;;;;6.70;6.20;;;15.50;99.90;;;;;;10492670;28;20225;-85
2021/09/18 00:36:00;;;;;;;7.33;6.73;;;15.50;99.90;;;;;;10497694;28;20234;-84
2021/09/18 00:41:02;;;;;;;7.20;6.53;;;15.50;99.90;;;;;;10500968;28;20228;-85
2021/09/18 00:46:04;;;;;;;6.27;5.77;;;15.40;99.90;;;;;;10517774;28;20253;-84
2021/09/18 00:51:08;;;;;;;6.83;6.43;;;15.40;99.90;;;;;;10501340;28;20257;-85
2021/09/18 00:56:11;;;;;;;7.07;6.47;;;15.40;99.90;;;;;;10506998;28;20196;-85
2021/09/18 01:01:13;;;;;;;8.07;7.40;;;15.40;99.90;;;;;;10534556;28;20230;-85
2021/09/18 01:06:17;;;;;;;8.33;7.63;;;15.30;99.90;;;;;;10535604;28;20228;-85
2021/09/18 01:11:19;;;;;;;7.60;7.10;;;15.40;99.90;;;;;;10502837;28;20791;-85
2021/09/18 01:16:22;;;;;;;8.73;7.80;;;15.30;99.90;;;;;;10522142;28;20866;-85
2021/09/18 01:21:25;;;;;;;9.07;8.37;;;15.30;99.90;;;;;;10553236;28;20230;-85
2021/09/18 01:26:34;;;;;;;9.43;8.80;;;15.30;99.90;;;;;;10551255;28;20254;-85
2021/09/18 01:31:39;;;;;;;9.67;8.97;;;15.30;99.90;;;;;;10550726;28;20291;-86
2021/09/18 01:36:41;;;;;;;9.37;8.67;;;15.20;99.90;;;;;;10584960;28;20593;-86
2021/09/18 01:41:46;;;;;;;9.57;8.77;;;15.20;99.90;;;;;;10550698;28;20235;-85
2021/09/18 01:46:48;;;;;;;10.50;9.60;;;15.20;99.90;;;;;;10567844;28;20235;-86
2021/09/18 01:51:56;;;;;;;9.90;9.20;;;15.10;99.90;;;;;;10525640;28;20223;-86
2021/09/18 01:57:00;;;;;;;9.90;9.20;;;15.10;99.90;;;;;;10555876;28;20196;-85
2021/09/18 02:02:02;;;;;;;10.97;9.97;;;15.10;99.90;;;;;;10528360;28;20231;-85
2021/09/18 02:07:04;;;;;;;10.70;9.80;;;15.10;99.90;;;;;;10508618;28;20208;-85
2021/09/18 02:12:08;;;;;;;9.80;9.00;;;15.10;99.90;;;;;;10525928;28;20307;-85
2021/09/18 02:17:10;;;;;;;9.70;8.90;;;15.10;99.90;;;;;;10507407;28;20214;-86
2021/09/18 02:22:12;;;;;;;10.03;9.33;;;15.10;99.90;;;;;;10509619;28;20219;-85
2021/09/18 02:27:16;;;;;;;10.43;9.53;;;15.10;99.90;;;;;;10530134;28;20295;-86
2021/09/18 02:32:18;;;;;;;10.23;9.33;;;15.10;99.90;;;;;;10504519;28;20227;-86
2021/09/18 02:37:20;;;;;;;10.03;9.13;;;15.10;99.90;;;;;;10505790;28;20227;-86
2021/09/18 02:42:24;;;;;;;9.87;9.10;;;15.10;99.90;;;;;;10505274;28;20223;-86
2021/09/18 02:47:26;;;;;;;8.70;8.00;;;15.00;99.90;;;;;;10522554;28;20541;-87
2021/09/18 02:52:28;;;;;;;10.17;9.40;;;15.10;99.90;;;;;;10504904;28;20277;-86
2021/09/18 02:57:31;;;;;;;8.70;8.10;;;15.10;99.90;;;;;;10522006;28;20192;-85
2021/09/18 03:02:34;;;;;;;9.60;8.70;;;15.00;99.90;;;;;;10505242;28;20231;-85
2021/09/18 03:07:36;;;;;;;7.63;6.93;;;15.00;99.90;;;;;;10521726;28;20622;-85
2021/09/18 03:12:41;;;;;;;8.37;7.77;;;15.00;99.90;;;;;;10504283;28;20212;-85
2021/09/18 03:17:43;;;;;;;7.77;7.27;;;15.00;99.90;;;;;;10520416;28;20212;-85
2021/09/18 03:22:45;;;;;;;7.87;7.37;;;15.00;99.90;;;;;;10504523;28;20629;-85
2021/09/18 03:27:48;;;;;;;7.10;6.60;;;14.90;99.90;;;;;;10504591;28;20208;-85
2021/09/18 03:32:50;;;;;;;7.60;7.10;;;14.90;99.90;;;;;;10504359;28;20226;-85
2021/09/18 03:37:52;;;;;;;8.63;7.93;;;14.80;99.90;;;;;;10503879;28;20259;-85
2021/09/18 03:43:00;;;;;;;8.90;8.13;;;14.80;99.90;;;;;;10520306;28;20733;-85
2021/09/18 03:48:02;;;;;;;9.57;8.80;;;14.80;99.90;;;;;;10520437;28;20223;-86
2021/09/18 03:53:04;;;;;;;9.47;8.67;;;14.80;99.90;;;;;;10519941;28;20224;-86
2021/09/18 03:58:07;;;;;;;9.33;8.63;;;14.80;99.90;;;;;;10520284;28;20203;-86
2021/09/18 04:03:10;;;;;;;11.23;10.07;;;14.80;99.90;;;;;;10502678;28;20241;-86
2021/09/18 04:08:13;;;;;;;9.67;8.80;;;14.70;99.90;;;;;;10504015;28;20207;-85
2021/09/18 04:13:16;;;;;;;8.67;8.07;;;14.70;99.90;;;;;;10520155;28;20242;-86
2021/09/18 04:18:18;;;;;;;10.40;9.50;;;14.70;99.90;;;;;;10504195;28;20206;-85
2021/09/18 04:23:20;;;;;;;12.20;11.10;;;14.60;99.90;;;;;;10507657;28;20318;-85
2021/09/18 04:28:24;;;;;;;11.70;10.70;;;14.60;99.90;;;;;;10502419;28;20199;-85
2021/09/18 04:33:26;;;;;;;11.27;10.37;;;14.70;99.90;;;;;;10501751;28;20691;-85
2021/09/18 04:38:28;;;;;;;11.47;10.57;;;14.60;99.90;;;;;;10519161;28;20204;-85
2021/09/18 04:43:32;;;;;;;11.80;10.70;;;14.60;99.90;;;;;;10502745;28;20223;-85
2021/09/18 04:48:34;;;;;;;12.70;11.37;;;14.60;99.90;;;;;;10497952;28;20265;-85
2021/09/18 04:53:36;;;;;;;13.20;12.03;;;14.50;99.90;;;;;;10469119;28;20223;-85
2021/09/18 04:58:40;;;;;;;13.33;12.23;;;14.50;99.90;;;;;;10487056;28;20207;-86
2021/09/18 05:03:42;;;;;;;13.30;12.20;;;14.50;99.90;;;;;;10467672;28;20240;-85
2021/09/18 05:08:44;;;;;;;12.80;11.60;;;14.50;99.90;;;;;;10484970;28;20391;-85
2021/09/18 05:13:47;;;;;;;13.70;12.50;;;14.50;99.90;;;;;;10468491;28;20251;-85
2021/09/18 05:18:49;;;;;;;12.27;11.07;;;14.50;99.90;;;;;;10522640;28;20313;-85
2021/09/18 05:23:51;;;;;;;14.43;13.03;;;14.40;99.90;;;;;;10550974;28;20699;-85
2021/09/18 05:28:55;;;;;;;14.00;12.70;;;14.40;99.90;;;;;;10550572;28;20248;-86
2021/09/18 05:33:57;;;;;;;12.30;11.30;;;14.40;99.90;;;;;;10550320;28;20223;-85
2021/09/18 05:38:59;;;;;;;13.20;12.10;;;14.40;99.90;;;;;;10566687;28;20219;-85
2021/09/18 05:44:03;;;;;;;13.00;11.90;;;14.40;99.90;;;;;;10549738;28;20702;-85
2021/09/18 05:49:05;;;;;;;11.43;10.43;;;14.50;99.90;;;;;;10505668;28;20204;-85
2021/09/18 05:54:07;;;;;;;11.23;10.33;;;14.50;99.90;;;;;;10483349;28;20605;-85
2021/09/18 05:59:11;;;;;;;10.97;10.17;;;14.50;99.90;;;;;;10482566;28;20276;-85
2021/09/18 06:04:13;;;;;;;12.00;11.00;;;14.50;99.90;;;;;;10465025;28;20224;-85
2021/09/18 06:09:15;;;;;;;13.23;12.07;;;14.50;99.90;;;;;;10482114;28;20204;-85
2021/09/18 06:14:18;;;;;;;12.90;11.67;;;14.60;99.90;;;;;;10521369;28;20306;-85
2021/09/18 06:19:21;;;;;;;13.43;12.23;;;14.60;99.90;;;;;;10485704;28;20216;-86
2021/09/18 06:24:23;;;;;;;13.67;12.57;;;14.70;99.90;;;;;;10464897;28;20696;-85
2021/09/18 06:29:27;;;;;;;13.23;12.13;;;14.70;99.90;;;;;;10481166;28;20735;-85
2021/09/18 06:34:30;;;;;;;13.07;11.97;;;14.70;99.90;;;;;;10464344;28;20594;-85
2021/09/18 06:39:33;;;;;;;13.33;12.13;;;14.80;99.90;;;;;;10500145;28;20721;-85
2021/09/18 06:44:38;;;;;;;13.23;11.93;;;14.80;99.90;;;;;;10505376;28;20285;-85
2021/09/18 06:49:40;;;;;;;13.30;12.13;;;14.90;99.90;;;;;;10521922;28;20228;-85
2021/09/18 06:54:43;;;;;;;13.30;12.10;;;14.90;99.90;;;;;;10505179;28;20687;-86
2021/09/18 06:59:47;;;;;;;13.73;12.33;;;14.90;99.90;;;;;;10505299;28;20760;-87
2021/09/18 07:04:49;;;;;;;14.03;12.83;;;15.00;99.90;;;;;;10538254;28;20218;-85
2021/09/18 07:09:51;;;;;;;14.40;13.10;;;15.00;99.90;;;;;;10546960;28;20622;-85
2021/09/18 07:14:54;;;;;;;14.90;12.90;;;15.10;99.90;;;;;;10545958;28;20299;-85
2021/09/18 07:19:58;;;;;;;19.10;17.30;;;15.20;99.90;;;;;;10520469;28;20247;-85
2021/09/18 07:25:00;;;;;;;16.43;15.00;;;15.30;99.90;;;;;;10520820;28;20606;-86
2021/09/18 07:30:05;;;;;;;17.60;16.10;;;15.30;99.90;;;;;;10504915;28;20262;-85
2021/09/18 07:35:07;;;;;;;18.70;17.07;;;15.40;99.90;;;;;;10545507;28;20286;-85
2021/09/18 07:40:12;;;;;;;16.50;15.00;;;15.50;99.90;;;;;;10545760;28;20223;-85
2021/09/18 07:45:15;;;;;;;15.63;14.23;;;15.60;99.90;;;;;;10558618;28;20235;-85
2021/09/18 07:50:17;;;;;;;15.53;14.20;;;15.70;99.90;;;;;;10538110;28;20251;-85
2021/09/18 07:55:20;;;;;;;15.53;14.03;;;15.80;99.90;;;;;;10503883;28;20565;-85
2021/09/18 08:00:23;;;;;;;14.50;13.30;;;15.90;99.90;;;;;;10537007;28;20215;-85
2021/09/18 08:05:25;;;;;;;15.07;13.67;;;16.10;99.90;;;;;;10502853;28;20235;-85
2021/09/18 08:10:28;;;;;;;13.77;12.67;;;16.20;99.90;;;;;;10535763;28;20261;-85
2021/09/18 08:15:31;;;;;;;15.00;13.70;;;16.30;99.90;;;;;;10516599;28;20608;-85
2021/09/18 08:20:33;;;;;;;12.63;11.73;;;16.50;99.90;;;;;;10518968;28;20598;-85
2021/09/18 08:25:35;;;;;;;11.23;10.43;;;16.60;99.90;;;;;;10542047;28;20268;-85
2021/09/18 08:30:39;;;;;;;13.13;12.23;;;16.70;99.90;;;;;;10560635;28;20230;-85
2021/09/18 08:35:41;;;;;;;11.87;10.93;;;16.80;99.90;;;;;;10561437;28;20635;-85
2021/09/18 08:40:43;;;;;;;11.47;10.47;;;16.90;99.90;;;;;;10543640;28;20230;-85
2021/09/18 08:45:48;;;;;;;12.63;10.50;;;17.00;99.90;;;;;;10552233;28;20254;-85
2021/09/18 08:50:51;;;;;;;11.10;10.30;;;17.10;99.90;;;;;;10517913;28;20228;-85
2021/09/18 08:55:54;;;;;;;11.33;10.33;;;17.20;99.90;;;;;;10501590;28;20192;-85
2021/09/18 09:00:58;;;;;;;10.60;9.80;;;17.30;99.90;;;;;;10500845;28;20269;-85
2021/09/18 09:06:07;;;;;;;11.40;10.40;;;17.40;99.90;;;;;;10536146;28;20215;-85
2021/09/18 09:11:19;;;;;;;10.77;9.97;;;17.50;99.90;;;;;;10534566;28;20711;-85
2021/09/18 09:16:23;;;;;;;11.03;10.13;;;17.60;99.90;;;;;;10495149;28;20207;-85
2021/09/18 09:21:27;;;;;;;9.30;8.60;;;17.70;99.90;;;;;;10500721;28;20219;-85
2021/09/18 09:26:29;;;;;;;9.07;8.23;;;17.80;99.90;;;;;;10499866;28;20242;-85
2021/09/18 09:31:35;;;;;;;9.80;9.10;;;17.90;99.90;;;;;;10500109;28;20250;-84
2021/09/18 09:36:40;;;;;;;10.03;9.13;;;18.00;99.90;;;;;;10534835;28;20204;-85
2021/09/18 09:41:46;;;;;;;10.17;9.47;;;18.10;99.90;;;;;;10502708;28;20219;-85
2021/09/18 09:47:04;;;;;;;7.73;7.13;;;18.30;99.90;;;;;;10507094;28;20261;-85
2021/09/18 09:52:18;;;;;;;6.33;5.90;;;18.60;99.90;;;;;;10524824;28;20223;-85
2021/09/18 09:57:20;;;;;;;4.60;4.30;;;19.00;99.90;;;;;;10507909;28;20203;-85
2021/09/18 10:02:24;;;;;;;5.00;4.67;;;19.30;99.90;;;;;;10523429;28;20219;-85
2021/09/18 10:07:27;;;;;;;3.80;3.60;;;19.40;99.90;;;;;;10507117;28;20196;-85
2021/09/18 10:12:30;;;;;;;3.37;3.20;;;19.50;99.90;;;;;;10523748;28;20687;-86
2021/09/18 10:17:36;;;;;;;3.60;3.40;;;19.40;99.90;;;;;;10505379;28;20655;-85
2021/09/18 10:28:08;;;;;;;3.47;3.23;;;19.30;99.90;;;;;;10510589;28;20198;-85
2021/09/18 10:33:37;;;;;;;4.03;3.83;;;19.20;99.90;;;;;;10522437;28;20220;-85
2021/09/18 10:38:41;;;;;;;3.00;2.70;;;19.10;99.90;;;;;;10523606;28;20206;-84
2021/09/18 10:43:45;;;;;;;2.80;2.70;;;19.00;99.90;;;;;;10520237;28;20247;-85
2021/09/18 10:48:49;;;;;;;3.20;3.00;;;19.00;99.90;;;;;;10506089;28;20231;-85
2021/09/18 10:54:04;;;;;;;3.50;3.30;;;19.00;99.90;;;;;;10519663;28;20212;-84
2021/09/18 10:59:07;;;;;;;3.13;2.93;;;19.00;99.90;;;;;;10521308;28;20200;-84
2021/09/18 11:04:38;;;;;;;4.20;3.80;;;18.90;99.90;;;;;;10502736;28;20223;-84
2021/09/18 11:09:50;;;;;;;4.93;4.63;;;18.90;99.90;;;;;;10520310;28;20192;-84
2021/09/18 11:15:01;;;;;;;4.93;4.63;;;18.90;99.90;;;;;;10483778;28;20225;-84
2021/09/18 11:20:12;;;;;;;6.27;5.53;;;19.00;99.90;;;;;;10504642;28;20212;-84
2021/09/18 11:25:30;;;;;;;5.03;4.73;;;19.00;99.90;;;;;;10501841;28;20220;-84
2021/09/18 11:30:41;;;;;;;5.50;5.10;;;19.00;99.90;;;;;;10519737;28;20276;-84
2021/09/18 11:35:52;;;;;;;5.70;5.40;;;19.00;99.90;;;;;;10516740;28;20656;-84
2021/09/18 11:41:05;;;;;;;5.33;4.93;;;19.10;99.90;;;;;;10536284;28;20587;-84
2021/09/18 11:46:09;;;;;;;5.20;4.90;;;19.00;99.90;;;;;;10492033;28;20232;-86
2021/09/18 11:51:11;;;;;;;4.77;4.47;;;19.00;99.90;;;;;;10478509;28;20208;-84
2021/09/18 11:56:14;;;;;;;3.87;3.67;;;19.10;99.90;;;;;;10461495;28;20207;-84
2021/09/18 12:01:17;;;;;;;4.27;3.97;;;19.10;99.90;;;;;;10461322;28;20319;-84
2021/09/18 12:06:20;;;;;;;4.90;4.60;;;19.10;99.90;;;;;;10460808;28;20220;-85
2021/09/18 12:11:23;;;;;;;4.33;4.07;;;19.20;99.90;;;;;;10501797;28;20630;-84
2021/09/18 12:16:26;;;;;;;4.37;4.07;;;19.20;99.90;;;;;;10502271;28;20199;-85
2021/09/18 12:21:30;;;;;;;5.80;5.30;;;19.20;99.90;;;;;;10501950;28;20219;-84
2021/09/18 12:26:37;;;;;;;4.60;4.30;;;19.20;99.90;;;;;;10502039;28;20273;-85
2021/09/18 12:31:42;;;;;;;4.50;4.27;;;19.30;99.90;;;;;;10517918;28;20232;-85
2021/09/18 12:36:45;;;;;;;5.63;4.60;;;19.30;99.90;;;;;;10518816;28;20207;-84
2021/09/18 12:41:48;;;;;;;5.30;4.90;;;19.30;99.90;;;;;;10518955;28;20226;-84
2021/09/18 12:46:52;;;;;;;4.97;4.67;;;19.30;99.90;;;;;;10518002;28;20296;-84
2021/09/18 12:52:01;;;;;;;5.70;5.30;;;19.30;99.90;;;;;;10535544;28;20218;-84
2021/09/18 12:57:08;;;;;;;6.57;5.87;;;19.40;99.90;;;;;;10470290;28;20205;-84
2021/09/18 13:02:11;;;;;;;5.43;5.03;;;19.50;99.90;;;;;;10458669;28;20307;-84
2021/09/18 13:07:13;;;;;;;5.50;5.10;;;19.70;99.90;;;;;;10460314;28;20196;-84
2021/09/18 13:12:19;;;;;;;5.47;5.07;;;19.80;99.90;;;;;;10477159;28;20244;-84
2021/09/18 13:17:23;;;;;;;4.80;4.50;;;19.90;99.90;;;;;;10483741;28;20204;-84
2021/09/18 13:22:27;;;;;;;5.50;5.00;;;19.90;99.90;;;;;;10509480;28;20228;-84
2021/09/18 13:27:31;;;;;;;4.93;4.63;;;19.90;99.90;;;;;;10509354;28;20222;-85
2021/09/18 13:32:43;;;;;;;4.93;4.63;;;19.90;99.90;;;;;;10516086;22;20323;-85
2021/09/18 19:30:42;;;;;;;9.33;8.63;;;17.40;99.90;;;;;;10761753;22;21072;31
2021/09/18 19:35:46;;;;;;;9.30;8.57;;;17.30;99.90;;;;;;10335028;28;20572;-83
2021/09/18 19:40:48;;;;;;;9.30;8.60;;;17.30;99.90;;;;;;10345029;28;20222;-82
2021/09/18 19:45:52;;;;;;;9.20;8.50;;;17.30;99.90;;;;;;10379369;28;20260;-83
2021/09/18 19:50:54;;;;;;;9.83;8.93;;;17.30;99.90;;;;;;10377136;28;20226;-82
2021/09/18 19:55:58;;;;;;;10.23;9.43;;;17.30;99.90;;;;;;10358325;28;20202;-83
2021/09/18 20:01:01;;;;;;;9.97;9.10;;;17.20;99.90;;;;;;10379905;28;20226;-83
2021/09/18 20:06:04;;;;;;;11.30;10.50;;;17.20;99.90;;;;;;10377987;28;20277;-83
2021/09/18 20:11:06;;;;;;;9.90;9.13;;;17.20;99.90;;;;;;10380962;28;20318;-83
2021/09/18 20:16:09;;;;;;;10.20;9.37;;;17.20;99.90;;;;;;10368634;28;20206;-82
2021/09/18 20:21:12;;;;;;;11.73;10.83;;;17.20;99.90;;;;;;10396503;28;20229;-82
2021/09/18 20:26:14;;;;;;;10.07;9.37;;;17.20;99.90;;;;;;10415154;28;20296;-83
2021/09/18 20:31:18;;;;;;;11.17;10.37;;;17.20;99.90;;;;;;10397827;28;20229;-83
2021/09/18 20:36:20;;;;;;;10.43;9.67;;;17.10;99.90;;;;;;10384285;28;20221;-83
2021/09/18 20:41:22;;;;;;;15.90;14.30;;;17.10;99.90;;;;;;10384702;28;20289;-82
2021/09/18 20:46:25;;;;;;;11.97;10.97;;;17.10;99.90;;;;;;10386527;28;20222;-84
2021/09/18 20:51:30;;;;;;;14.30;13.20;;;17.10;99.90;;;;;;10374626;28;20222;-83
2021/09/18 20:56:32;;;;;;;11.67;10.67;;;17.10;99.90;;;;;;10372607;28;20563;-83
2021/09/18 21:06:58;;;;;;;10.50;9.80;;;17.10;99.90;;;;;;10372618;28;20222;-83
2021/09/18 21:12:00;;;;;;;10.27;9.47;;;17.10;99.90;;;;;;10357923;28;20286;-83
2021/09/18 21:17:04;;;;;;;11.20;10.20;;;17.10;99.90;;;;;;10391517;28;20194;-83
2021/09/18 21:22:06;;;;;;;10.50;9.67;;;17.00;99.90;;;;;;10399758;28;20309;-83
2021/09/18 21:27:08;;;;;;;10.80;10.10;;;16.90;99.90;;;;;;10411250;28;20221;-83
2021/09/18 21:32:12;;;;;;;11.60;10.67;;;16.90;99.90;;;;;;10395557;28;20301;-82
2021/09/18 21:37:14;;;;;;;10.67;9.77;;;16.80;99.90;;;;;;10398339;28;20194;-82
2021/09/18 21:42:17;;;;;;;12.10;11.20;;;16.80;99.90;;;;;;10421733;28;20214;-82
2021/09/18 21:47:20;;;;;;;10.17;9.47;;;16.80;99.90;;;;;;10402643;28;20235;-82
2021/09/18 21:52:22;;;;;;;11.27;10.27;;;16.70;99.90;;;;;;10404161;28;20252;-84
2021/09/18 21:57:25;;;;;;;10.37;9.57;;;16.70;99.90;;;;;;10402623;28;20268;-82
2021/09/18 22:02:28;;;;;;;10.27;9.47;;;16.70;99.90;;;;;;10420832;28;20242;-83
2021/09/18 22:07:31;;;;;;;10.20;9.40;;;16.70;99.90;;;;;;10420909;28;20583;-82
2021/09/18 22:12:33;;;;;;;9.60;8.80;;;16.60;99.90;;;;;;10419527;28;20232;-83
2021/09/18 22:17:37;;;;;;;10.60;9.70;;;16.60;99.90;;;;;;10403992;28;20297;-82
2021/09/18 22:22:39;;;;;;;9.93;9.23;;;16.60;99.90;;;;;;10404549;28;20218;-83
2021/09/18 22:27:41;;;;;;;10.40;9.70;;;16.60;99.90;;;;;;10404177;28;20316;-83
2021/09/18 22:32:45;;;;;;;10.10;9.40;;;16.50;99.90;;;;;;10404338;28;20296;-83
2021/09/18 22:37:47;;;;;;;10.60;9.80;;;16.50;99.90;;;;;;10421474;28;20288;-83
2021/09/18 22:42:49;;;;;;;11.43;10.53;;;16.50;99.90;;;;;;10405786;28;20297;-83
2021/09/18 22:47:53;;;;;;;10.63;9.87;;;16.40;99.90;;;;;;10404467;28;20229;-83
2021/09/18 22:52:55;;;;;;;10.50;9.70;;;16.40;99.90;;;;;;10424621;28;20737;-83
2021/09/18 22:57:57;;;;;;;10.70;9.90;;;16.30;99.90;;;;;;10407486;28;20197;-82
2021/09/18 23:03:04;;;;;;;13.43;12.33;;;16.30;99.90;;;;;;10406454;28;20222;-84
2021/09/18 23:08:07;;;;;;;12.80;11.50;;;16.30;99.90;;;;;;10409378;28;20229;-83
2021/09/18 23:13:10;;;;;;;13.40;12.40;;;16.20;99.90;;;;;;10425122;28;20248;-82
2021/09/18 23:18:14;;;;;;;12.63;11.70;;;16.20;99.90;;;;;;10399007;28;20202;-82
2021/09/18 23:23:16;;;;;;;13.23;12.13;;;16.10;99.90;;;;;;10399101;28;20214;-84
2021/09/18 23:28:22;;;;;;;11.70;10.80;;;16.10;99.90;;;;;;10400391;28;20230;-82
2021/09/18 23:33:25;;;;;;;19.50;17.53;;;16.10;99.90;;;;;;10417437;28;20725;-82
2021/09/18 23:38:29;;;;;;;16.60;15.17;;;16.10;99.90;;;;;;10400190;28;20202;-82
2021/09/18 23:43:31;;;;;;;13.90;12.70;;;16.10;99.90;;;;;;10400070;28;20236;-82
2021/09/18 23:48:34;;;;;;;10.40;9.60;;;16.00;99.90;;;;;;10384451;28;20206;-83
2021/09/18 23:53:36;;;;;;;11.20;9.17;;;16.00;99.90;;;;;;10381366;28;20330;-82
2021/09/18 23:58:38;;;;;;;12.10;11.20;;;15.90;99.90;;;;;;10374778;28;20191;-82
